createdAt,value
2018-06-27T00:02:15.434Z,98958.19
2018-06-27T00:04:44.075Z,98961.36
2018-06-27T00:07:12.510Z,98967.88
2018-06-27T00:09:41.329Z,98966.97
2018-06-27T00:12:10.004Z,98963.32
2018-06-27T00:14:38.771Z,98958.71
2018-06-27T00:17:07.469Z,98959.97
2018-06-27T00:19:36.007Z,98964.11
2018-06-27T00:22:04.597Z,98961.51
2018-06-27T00:24:33.055Z,98957.05
2018-06-27T00:27:01.506Z,98953.53
2018-06-27T00:29:30.219Z,98954.27
2018-06-27T00:31:58.654Z,98947.85
2018-06-27T00:34:27.167Z,98949.58
2018-06-27T00:36:55.667Z,98946.55
2018-06-27T00:39:24.173Z,98950.59
2018-06-27T00:41:52.659Z,98946.83
2018-06-27T00:44:21.187Z,98939.88
2018-06-27T00:46:49.714Z,98948.48
2018-06-27T00:49:18.244Z,98936.98
2018-06-27T00:51:46.753Z,98935.45
2018-06-27T00:54:15.261Z,98933.23
2018-06-27T00:56:43.682Z,98939.66
2018-06-27T00:59:12.199Z,98943.66
2018-06-27T01:01:40.674Z,98938.07
2018-06-27T01:04:09.385Z,98946.34
2018-06-27T01:06:38.098Z,98950.05
2018-06-27T01:09:08.870Z,98944.97
2018-06-27T01:11:37.439Z,98941.91
2018-06-27T01:14:06.026Z,98942.35
2018-06-27T01:16:34.762Z,98940.94
2018-06-27T01:19:03.323Z,98943.13
2018-06-27T01:21:32.287Z,98944.78
2018-06-27T01:24:00.937Z,98946.97
2018-06-27T01:26:29.378Z,98948.61
2018-06-27T01:28:57.843Z,98948.09
2018-06-27T01:31:26.342Z,98942.52
2018-06-27T01:33:55.111Z,98947.30
2018-06-27T01:36:23.611Z,98945.21
2018-06-27T01:38:52.059Z,98944.34
2018-06-27T01:41:20.582Z,98942.28
2018-06-27T01:43:49.055Z,98944.95
2018-06-27T01:46:17.535Z,98944.53
2018-06-27T01:48:45.990Z,98942.28
2018-06-27T01:51:14.487Z,98945.12
2018-06-27T01:53:42.946Z,98946.61
2018-06-27T02:02:43.022Z,98945.73
2018-06-27T02:05:11.502Z,98946.48
2018-06-27T02:07:40.175Z,98946.41
2018-06-27T02:10:08.671Z,98938.40
2018-06-27T02:12:37.189Z,98946.42
2018-06-27T02:15:06.219Z,98934.34
2018-06-27T02:17:34.764Z,98940.16
2018-06-27T02:20:03.263Z,98935.80
2018-06-27T02:22:31.754Z,98951.78
2018-06-27T02:25:00.446Z,98941.95
2018-06-27T02:27:28.986Z,98941.55
2018-06-27T02:29:57.430Z,98943.34
2018-06-27T02:32:25.944Z,98943.83
2018-06-27T02:34:54.492Z,98949.66
2018-06-27T02:37:23.226Z,98948.62
2018-06-27T02:39:51.939Z,98959.67
2018-06-27T02:42:20.619Z,98958.91
2018-06-27T02:44:49.156Z,98964.19
2018-06-27T02:47:17.650Z,98965.44
2018-06-27T02:49:46.132Z,98964.62
2018-06-27T02:52:14.653Z,98967.88
2018-06-27T02:54:43.229Z,98975.84
2018-06-27T02:57:11.676Z,98977.08
2018-06-27T02:59:40.123Z,98980.83
2018-06-27T03:02:08.667Z,98986.17
2018-06-27T03:04:37.123Z,98988.95
2018-06-27T03:07:05.898Z,98994.68
2018-06-27T03:09:34.374Z,98993.84
2018-06-27T03:12:02.937Z,99000.49
2018-06-27T03:14:31.476Z,98994.18
2018-06-27T03:16:59.977Z,99001.92
2018-06-27T03:19:28.620Z,98998.17
2018-06-27T03:21:57.115Z,98998.94
2018-06-27T03:24:25.700Z,98996.41
2018-06-27T03:26:54.458Z,99000.36
2018-06-27T03:29:22.980Z,99001.37
2018-06-27T03:31:51.427Z,99002.34
2018-06-27T03:34:19.966Z,99001.20
2018-06-27T03:36:49.159Z,99004.69
2018-06-27T03:39:17.711Z,99002.50
2018-06-27T03:41:46.207Z,99009.44
2018-06-27T03:44:14.676Z,99004.82
2018-06-27T03:46:43.110Z,99009.07
2018-06-27T03:49:11.784Z,99016.09
2018-06-27T03:51:40.355Z,99016.39
2018-06-27T03:54:09.020Z,99015.25
2018-06-27T03:56:37.458Z,99027.99
2018-06-27T03:59:06.021Z,99029.12
2018-06-27T04:01:34.531Z,99027.28
2018-06-27T04:04:03.035Z,99026.94
2018-06-27T04:06:31.558Z,99029.42
2018-06-27T04:09:00.164Z,99028.36
2018-06-27T04:11:28.741Z,99030.68
2018-06-27T04:13:57.311Z,99026.14
2018-06-27T04:16:25.838Z,99025.22
2018-06-27T04:18:54.342Z,99022.95
2018-06-27T04:21:22.863Z,99024.89
2018-06-27T04:23:51.416Z,99026.44
2018-06-27T04:26:19.855Z,99024.47
2018-06-27T04:28:48.511Z,99027.08
2018-06-27T04:31:17.042Z,99027.63
2018-06-27T04:33:45.515Z,99033.59
2018-06-27T04:36:14.051Z,99032.09
2018-06-27T04:38:42.479Z,99032.17
2018-06-27T04:41:11.020Z,99038.02
2018-06-27T04:43:42.714Z,99034.27
2018-06-27T04:46:11.223Z,99031.86
2018-06-27T04:48:39.774Z,99035.31
2018-06-27T04:51:08.335Z,99033.67
2018-06-27T04:53:36.834Z,99037.41
2018-06-27T04:56:05.509Z,99041.88
2018-06-27T04:58:34.085Z,99045.89
2018-06-27T05:01:02.623Z,99048.64
2018-06-27T05:03:31.115Z,99051.81
2018-06-27T05:05:59.622Z,99045.55
2018-06-27T05:08:28.267Z,99045.58
2018-06-27T05:10:56.758Z,99044.30
2018-06-27T05:13:25.218Z,99051.45
2018-06-27T05:15:53.812Z,99055.59
2018-06-27T05:18:22.350Z,99053.63
2018-06-27T05:20:50.890Z,99056.09
2018-06-27T05:23:19.701Z,99053.64
2018-06-27T05:25:48.378Z,99058.63
2018-06-27T05:28:16.981Z,99061.08
2018-06-27T05:30:45.515Z,99058.77
2018-06-27T05:33:14.146Z,99059.11
2018-06-27T05:35:42.740Z,99061.24
2018-06-27T05:38:11.242Z,99059.12
2018-06-27T05:40:39.742Z,99053.90
2018-06-27T05:43:08.219Z,99055.95
2018-06-27T05:45:36.706Z,99053.73
2018-06-27T05:48:05.555Z,99055.02
2018-06-27T05:50:34.161Z,99054.85
2018-06-27T05:53:02.693Z,99051.06
2018-06-27T05:55:31.283Z,99052.80
2018-06-27T05:58:00.424Z,99058.97
2018-06-27T06:00:28.920Z,99048.36
2018-06-27T06:02:57.422Z,99046.55
2018-06-27T06:05:25.924Z,99049.63
2018-06-27T06:07:54.450Z,99050.33
2018-06-27T06:10:23.118Z,99058.83
2018-06-27T06:12:51.694Z,99050.91
2018-06-27T06:15:20.304Z,99049.79
2018-06-27T06:17:48.890Z,99043.73
2018-06-27T06:20:17.554Z,99043.83
2018-06-27T06:22:46.012Z,99040.00
2018-06-27T06:25:15.368Z,99043.27
2018-06-27T06:27:43.935Z,99048.41
2018-06-27T06:30:12.608Z,99044.39
2018-06-27T06:32:41.223Z,99044.09
2018-06-27T06:35:09.734Z,99041.78
2018-06-27T06:37:38.318Z,99042.36
2018-06-27T06:40:06.834Z,99045.63
2018-06-27T06:42:35.382Z,99045.99
2018-06-27T06:45:03.907Z,99034.16
2018-06-27T06:47:32.647Z,99035.70
2018-06-27T06:50:01.255Z,99036.75
2018-06-27T06:52:29.722Z,99035.95
2018-06-27T06:54:59.924Z,99040.19
2018-06-27T06:57:28.458Z,99039.00
2018-06-27T06:59:56.926Z,99039.70
2018-06-27T07:02:25.514Z,99041.73
2018-06-27T07:04:54.424Z,99036.31
2018-06-27T07:07:23.183Z,99037.47
2018-06-27T07:09:51.963Z,99032.20
2018-06-27T07:12:20.648Z,99033.22
2018-06-27T07:14:49.203Z,99031.17
2018-06-27T07:17:17.702Z,99031.17
2018-06-27T07:19:46.201Z,99034.21
2018-06-27T07:22:14.784Z,99029.08
2018-06-27T07:24:43.299Z,99035.50
2018-06-27T07:27:11.799Z,99024.09
2018-06-27T07:29:40.258Z,99030.84
2018-06-27T07:32:08.879Z,99026.72
2018-06-27T07:34:37.360Z,99022.12
2018-06-27T07:37:05.827Z,99020.86
2018-06-27T07:39:34.326Z,99016.39
2018-06-27T07:42:02.762Z,99011.42
2018-06-27T07:44:31.307Z,99012.19
2018-06-27T07:46:59.932Z,99007.93
2018-06-27T07:49:28.496Z,99010.08
2018-06-27T07:51:57.101Z,99011.22
2018-06-27T07:54:25.716Z,99006.30
2018-06-27T07:56:54.198Z,99009.92
2018-06-27T07:59:22.731Z,99018.64
2018-06-27T08:01:51.291Z,99009.56
2018-06-27T08:04:19.952Z,99005.12
2018-06-27T08:06:48.443Z,99000.89
2018-06-27T08:09:16.892Z,98999.76
2018-06-27T08:11:45.348Z,98995.61
2018-06-27T08:14:13.886Z,98994.26
2018-06-27T08:16:42.398Z,98984.11
2018-06-27T08:19:10.911Z,98981.06
2018-06-27T08:21:39.536Z,98981.86
2018-06-27T08:24:08.063Z,98986.45
2018-06-27T08:26:36.567Z,98981.67
2018-06-27T08:29:05.455Z,98976.90
2018-06-27T08:31:34.235Z,98975.23
2018-06-27T08:34:02.750Z,98966.26
2018-06-27T08:36:31.211Z,98959.00
2018-06-27T08:38:59.752Z,98959.39
2018-06-27T08:41:28.208Z,98966.72
2018-06-27T08:43:56.702Z,98962.42
2018-06-27T08:46:25.166Z,98961.02
2018-06-27T08:48:53.718Z,98963.18
2018-06-27T08:51:22.374Z,98959.38
2018-06-27T08:53:50.827Z,98960.49
2018-06-27T08:56:19.329Z,98955.03
2018-06-27T08:58:47.888Z,98951.97
2018-06-27T09:01:16.831Z,98947.75
2018-06-27T09:03:45.403Z,98947.45
2018-06-27T09:06:13.962Z,98952.00
2018-06-27T09:08:42.405Z,98944.77
2018-06-27T09:11:11.047Z,98948.30
2018-06-27T09:13:39.538Z,98943.28
2018-06-27T09:16:08.322Z,98938.51
2018-06-27T09:18:36.984Z,98937.44
2018-06-27T09:21:05.507Z,98940.95
2018-06-27T09:23:33.999Z,98935.30
2018-06-27T09:26:02.512Z,98934.80
2018-06-27T09:28:30.984Z,98936.39
2018-06-27T09:30:59.490Z,98937.58
2018-06-27T09:33:27.935Z,98932.08
2018-06-27T09:35:56.539Z,98926.92
2018-06-27T09:38:25.032Z,98927.97
2018-06-27T09:40:53.546Z,98924.44
2018-06-27T09:43:22.271Z,98924.30
2018-06-27T09:45:50.942Z,98922.14
2018-06-27T09:48:19.592Z,98921.50
2018-06-27T09:50:48.088Z,98911.27
2018-06-27T09:53:16.694Z,98911.38
2018-06-27T09:55:45.211Z,98911.83
2018-06-27T09:58:13.659Z,98910.80
2018-06-27T10:00:42.177Z,98908.00
2018-06-27T10:03:11.307Z,98893.86
2018-06-27T10:05:39.846Z,98894.21
2018-06-27T10:08:08.675Z,98894.95
2018-06-27T10:10:37.247Z,98897.69
2018-06-27T10:13:05.856Z,98900.45
2018-06-27T10:15:34.296Z,98897.41
2018-06-27T10:18:02.762Z,98892.30
2018-06-27T10:20:31.520Z,98896.78
2018-06-27T10:23:00.055Z,98888.73
2018-06-27T10:25:28.573Z,98883.36
2018-06-27T10:27:57.063Z,98882.86
2018-06-27T10:30:25.676Z,98881.61
2018-06-27T10:32:54.191Z,98880.30
2018-06-27T10:35:22.699Z,98876.13
2018-06-27T10:37:51.248Z,98878.11
2018-06-27T10:40:19.711Z,98879.75
2018-06-27T10:42:48.210Z,98868.16
2018-06-27T10:45:16.694Z,98862.59
2018-06-27T10:47:45.179Z,98869.53
2018-06-27T10:50:13.758Z,98870.59
2018-06-27T10:52:42.223Z,98863.33
2018-06-27T10:55:16.165Z,98860.14
2018-06-27T10:57:44.598Z,98863.67
2018-06-27T11:00:13.087Z,98866.07
2018-06-27T11:02:41.582Z,98870.06
2018-06-27T11:05:10.048Z,98869.13
2018-06-27T11:07:38.608Z,98871.70
2018-06-27T11:10:07.200Z,98859.52
2018-06-27T11:12:35.759Z,98864.64
2018-06-27T11:15:04.350Z,98855.33
2018-06-27T11:17:32.880Z,98851.42
2018-06-27T11:20:02.192Z,98859.09
2018-06-27T11:22:30.707Z,98862.98
2018-06-27T11:24:59.246Z,98855.38
2018-06-27T11:27:27.758Z,98851.97
2018-06-27T11:29:56.271Z,98862.48
2018-06-27T11:32:25.258Z,98851.75
2018-06-27T11:34:53.852Z,98848.70
2018-06-27T11:37:22.564Z,98848.15
2018-06-27T11:39:51.047Z,98834.65
2018-06-27T11:42:19.678Z,98844.14
2018-06-27T11:44:48.115Z,98834.70
2018-06-27T11:47:16.654Z,98835.11
2018-06-27T11:49:45.138Z,98822.88
2018-06-27T11:52:13.736Z,98822.44
2018-06-27T11:54:42.386Z,98818.35
2018-06-27T11:57:11.135Z,98812.71
2018-06-27T11:59:39.647Z,98816.40
2018-06-27T12:02:08.222Z,98809.38
2018-06-27T12:04:36.796Z,98811.53
2018-06-27T12:07:05.544Z,98808.95
2018-06-27T12:09:34.022Z,98793.69
2018-06-27T12:12:02.469Z,98797.55
2018-06-27T12:14:30.986Z,98796.47
2018-06-27T12:16:59.441Z,98799.23
2018-06-27T12:19:27.996Z,98793.67
2018-06-27T12:21:56.635Z,98786.33
2018-06-27T12:24:25.081Z,98785.25
2018-06-27T12:26:53.646Z,98783.75
2018-06-27T12:29:22.247Z,98800.76
2018-06-27T12:31:51.022Z,98801.03
2018-06-27T12:34:19.569Z,98793.70
2018-06-27T12:36:48.131Z,98786.75
2018-06-27T12:39:16.644Z,98789.78
2018-06-27T12:41:45.154Z,98791.73
2018-06-27T12:44:13.699Z,98791.55
2018-06-27T12:46:42.259Z,98781.00
2018-06-27T12:49:10.725Z,98776.14
2018-06-27T12:51:39.209Z,98768.97
2018-06-27T12:54:07.810Z,98772.59
2018-06-27T12:56:36.540Z,98771.27
2018-06-27T12:59:05.225Z,98762.60
2018-06-27T13:01:33.740Z,98768.70
2018-06-27T13:04:02.265Z,98770.09
2018-06-27T13:06:30.718Z,98759.38
2018-06-27T13:08:59.274Z,98755.38
2018-06-27T13:11:27.867Z,98750.13
2018-06-27T13:13:56.415Z,98746.25
2018-06-27T13:16:25.082Z,98743.57
2018-06-27T13:18:53.664Z,98747.05
2018-06-27T13:21:22.251Z,98744.00
2018-06-27T13:23:50.859Z,98744.84
2018-06-27T13:26:19.431Z,98744.65
2018-06-27T13:28:48.032Z,98749.20
2018-06-27T13:31:16.873Z,98741.03
2018-06-27T13:33:45.455Z,98743.94
2018-06-27T13:36:14.043Z,98741.32
2018-06-27T13:38:42.693Z,98730.69
2018-06-27T13:41:11.840Z,98737.84
2018-06-27T13:43:40.516Z,98736.88
2018-06-27T13:46:09.045Z,98731.23
2018-06-27T13:48:37.625Z,98730.94
2018-06-27T13:51:06.671Z,98729.81
2018-06-27T13:53:35.340Z,98719.91
2018-06-27T13:56:05.088Z,98720.98
2018-06-27T13:58:33.630Z,98726.91
2018-06-27T14:01:02.327Z,98735.81
2018-06-27T14:03:31.100Z,98734.43
2018-06-27T14:05:59.711Z,98727.70
2018-06-27T14:08:28.217Z,98725.27
2018-06-27T14:10:56.731Z,98722.98
2018-06-27T14:13:25.376Z,98727.27
2018-06-27T14:15:54.396Z,98718.93
2018-06-27T14:18:23.162Z,98720.65
2018-06-27T14:20:51.714Z,98724.08
2018-06-27T14:23:20.290Z,98714.55
2018-06-27T14:25:49.026Z,98712.20
2018-06-27T14:28:22.360Z,98712.74
2018-06-27T14:30:51.952Z,98710.63
2018-06-27T14:33:20.608Z,98711.77
2018-06-27T14:35:49.408Z,98707.25
2018-06-27T14:38:17.990Z,98703.30
2018-06-27T14:40:46.779Z,98698.72
2018-06-27T14:43:15.415Z,98697.50
2018-06-27T14:45:44.309Z,98698.95
2018-06-27T14:48:12.961Z,98697.61
2018-06-27T14:50:41.704Z,98687.94
2018-06-27T14:53:10.631Z,98695.63
2018-06-27T14:55:39.220Z,98696.42
2018-06-27T14:58:07.970Z,98691.71
2018-06-27T15:00:36.598Z,98686.19
2018-06-27T15:03:05.362Z,98685.70
2018-06-27T15:05:33.857Z,98687.88
2018-06-27T15:08:02.761Z,98681.63
2018-06-27T15:10:31.383Z,98683.09
2018-06-27T15:12:59.967Z,98687.03
2018-06-27T15:15:29.189Z,98684.30
2018-06-27T15:17:57.850Z,98680.38
2018-06-27T15:20:26.434Z,98688.07
2018-06-27T15:22:55.722Z,98678.41
2018-06-27T15:25:24.321Z,98674.63
2018-06-27T15:27:52.925Z,98679.41
2018-06-27T15:30:21.516Z,98674.84
2018-06-27T15:32:50.127Z,98672.48
2018-06-27T15:35:18.701Z,98670.64
2018-06-27T15:37:47.370Z,98663.64
2018-06-27T15:40:15.962Z,98663.89
2018-06-27T15:42:44.644Z,98662.17
2018-06-27T15:45:13.215Z,98664.77
2018-06-27T15:47:41.835Z,98658.64
2018-06-27T15:50:10.432Z,98661.81
2018-06-27T15:52:38.919Z,98670.04
2018-06-27T15:55:07.519Z,98655.28
2018-06-27T15:57:36.208Z,98655.88
2018-06-27T16:00:05.047Z,98650.69
2018-06-27T16:02:33.740Z,98645.48
2018-06-27T16:05:06.907Z,98647.19
2018-06-27T16:07:35.442Z,98651.25
2018-06-27T16:10:04.179Z,98650.84
2018-06-27T16:12:32.774Z,98644.64
2018-06-27T16:15:01.291Z,98654.84
2018-06-27T16:17:29.922Z,98651.09
2018-06-27T16:19:58.558Z,98652.52
2018-06-27T16:22:27.031Z,98648.59
2018-06-27T16:24:55.528Z,98654.27
2018-06-27T16:27:24.298Z,98653.70
2018-06-27T16:29:52.840Z,98644.95
2018-06-27T16:32:21.525Z,98649.27
2018-06-27T16:34:50.230Z,98652.29
2018-06-27T16:37:18.803Z,98644.83
2018-06-27T16:39:47.319Z,98655.44
2018-06-27T16:42:15.925Z,98647.52
2018-06-27T16:44:44.556Z,98652.48
2018-06-27T16:47:13.311Z,98646.02
2018-06-27T16:49:41.880Z,98647.45
2018-06-27T16:52:10.403Z,98649.10
2018-06-27T16:54:38.990Z,98648.72
2018-06-27T16:57:08.038Z,98642.70
2018-06-27T16:59:36.514Z,98641.95
2018-06-27T17:02:05.077Z,98650.57
2018-06-27T17:04:33.858Z,98656.44
2018-06-27T17:07:02.469Z,98658.98
2018-06-27T17:09:30.939Z,98659.05
2018-06-27T17:11:59.491Z,98662.98
2018-06-27T17:14:28.080Z,98677.88
2018-06-27T17:16:57.314Z,98675.95
2018-06-27T17:19:25.794Z,98672.34
2018-06-27T17:21:54.378Z,98673.53
2018-06-27T17:24:23.411Z,98671.95
2018-06-27T17:26:51.976Z,98671.72
2018-06-27T17:29:21.056Z,98665.02
2018-06-27T17:31:50.809Z,98665.67
2018-06-27T17:34:19.594Z,98659.04
2018-06-27T17:36:48.796Z,98669.75
2018-06-27T17:39:17.489Z,98680.14
2018-06-27T17:41:46.005Z,98689.30
2018-06-27T17:44:14.677Z,98697.39
2018-06-27T17:46:43.259Z,98695.34
2018-06-27T17:49:11.873Z,98695.52
2018-06-27T17:51:40.358Z,98698.91
2018-06-27T17:54:09.020Z,98699.97
2018-06-27T17:56:37.539Z,98692.32
2018-06-27T17:59:06.237Z,98698.66
2018-06-27T18:01:35.150Z,98698.61
2018-06-27T18:04:03.852Z,98698.62
2018-06-27T18:06:32.640Z,98696.72
2018-06-27T18:09:01.273Z,98696.81
2018-06-27T18:11:30.048Z,98700.50
2018-06-27T18:13:58.575Z,98696.95
2018-06-27T18:16:27.184Z,98694.67
2018-06-27T18:18:56.046Z,98696.11
2018-06-27T18:21:24.590Z,98694.88
2018-06-27T18:23:53.175Z,98693.50
2018-06-27T18:26:22.036Z,98694.11
2018-06-27T18:28:50.859Z,98701.54
2018-06-27T18:31:19.389Z,98695.09
2018-06-27T18:33:48.071Z,98692.38
2018-06-27T18:36:16.582Z,98698.36
2018-06-27T18:38:45.214Z,98689.17
2018-06-27T18:41:14.065Z,98692.39
2018-06-27T18:43:42.644Z,98690.00
2018-06-27T18:46:11.234Z,98691.92
2018-06-27T18:48:39.816Z,98694.55
2018-06-27T18:51:08.485Z,98689.31
2018-06-27T18:53:37.371Z,98689.44
2018-06-27T18:56:06.027Z,98695.20
2018-06-27T18:58:35.240Z,98696.02
2018-06-27T19:01:03.804Z,98692.61
2018-06-27T19:03:32.374Z,98692.55
2018-06-27T19:06:01.068Z,98697.20
2018-06-27T19:08:29.605Z,98696.00
2018-06-27T19:10:58.187Z,98688.97
2018-06-27T19:13:27.243Z,98687.23
2018-06-27T19:15:55.770Z,98689.28
2018-06-27T19:18:24.322Z,98685.33
2018-06-27T19:20:52.918Z,98691.85
2018-06-27T19:23:21.468Z,98691.81
2018-06-27T19:25:49.984Z,98691.12
2018-06-27T19:28:18.812Z,98693.46
2018-06-27T19:30:47.390Z,98692.33
2018-06-27T19:33:15.891Z,98694.02
2018-06-27T19:35:44.548Z,98688.84
2018-06-27T19:38:13.097Z,98691.16
2018-06-27T19:40:41.643Z,98686.64
2018-06-27T19:43:10.186Z,98696.52
2018-06-27T19:45:38.983Z,98696.20
2018-06-27T19:48:07.658Z,98701.24
2018-06-27T19:50:36.366Z,98700.94
2018-06-27T19:53:05.016Z,98708.28
2018-06-27T19:55:33.921Z,98706.20
2018-06-27T19:58:02.402Z,98701.22
2018-06-27T20:00:30.865Z,98706.64
2018-06-27T20:02:59.402Z,98703.52
2018-06-27T20:05:28.006Z,98704.94
2018-06-27T20:07:57.139Z,98703.55
2018-06-27T20:10:25.714Z,98708.28
2018-06-27T20:12:54.355Z,98714.52
2018-06-27T20:15:22.920Z,98710.46
2018-06-27T20:17:51.700Z,98716.42
2018-06-27T20:20:20.319Z,98716.94
2018-06-27T20:22:48.895Z,98725.55
2018-06-27T20:25:17.397Z,98713.52
2018-06-27T20:27:46.188Z,98714.88
2018-06-27T20:30:14.917Z,98715.14
2018-06-27T20:32:43.592Z,98709.05
2018-06-27T20:35:12.232Z,98705.09
2018-06-27T20:37:40.811Z,98702.90
2018-06-27T20:40:09.488Z,98704.78
2018-06-27T20:42:38.060Z,98703.68
2018-06-27T20:45:06.695Z,98703.16
2018-06-27T20:47:35.259Z,98701.53
2018-06-27T20:50:03.867Z,98707.81
2018-06-27T20:52:32.456Z,98707.50
2018-06-27T20:55:01.789Z,98709.74
2018-06-27T20:57:30.339Z,98713.64
2018-06-27T20:59:58.991Z,98716.77
2018-06-27T21:02:27.707Z,98711.50
2018-06-27T21:04:56.802Z,98714.30
2018-06-27T21:07:27.367Z,98716.50
2018-06-27T21:09:55.983Z,98717.73
2018-06-27T21:12:24.519Z,98719.84
2018-06-27T21:14:52.999Z,98716.50
2018-06-27T21:17:21.574Z,98722.30
2018-06-27T21:19:51.193Z,98723.04
2018-06-27T21:22:19.755Z,98723.48
2018-06-27T21:24:48.858Z,98721.50
2018-06-27T21:27:17.434Z,98729.94
2018-06-27T21:29:46.040Z,98733.79
2018-06-27T21:32:14.569Z,98729.89
2018-06-27T21:34:43.227Z,98737.00
2018-06-27T21:37:11.783Z,98746.33
2018-06-27T21:39:40.906Z,98745.76
2018-06-27T21:42:09.563Z,98738.70
2018-06-27T21:44:38.034Z,98743.28
2018-06-27T21:47:06.511Z,98731.34
2018-06-27T21:49:35.025Z,98740.16
2018-06-27T21:52:03.523Z,98740.59
2018-06-27T21:54:32.084Z,98742.91
2018-06-27T21:57:00.617Z,98739.84
2018-06-27T21:59:29.270Z,98746.95
2018-06-27T22:01:58.033Z,98752.61
2018-06-27T22:04:26.475Z,98747.28
2018-06-27T22:06:55.151Z,98749.16
2018-06-27T22:09:23.711Z,98744.13
2018-06-27T22:11:52.326Z,98749.19
2018-06-27T22:14:20.858Z,98754.32
2018-06-27T22:16:49.349Z,98753.09
2018-06-27T22:19:17.882Z,98762.47
2018-06-27T22:21:46.380Z,98757.94
2018-06-27T22:24:14.975Z,98754.55
2018-06-27T22:26:43.573Z,98756.95
2018-06-27T22:29:12.018Z,98758.03
2018-06-27T22:31:40.744Z,98759.61
2018-06-27T22:34:09.266Z,98757.69
2018-06-27T22:36:38.397Z,98765.61
2018-06-27T22:39:09.536Z,98765.87
2018-06-27T22:41:38.192Z,98761.77
2018-06-27T22:44:07.006Z,98761.36
2018-06-27T22:46:35.935Z,98769.02
2018-06-27T22:49:04.551Z,98770.47
2018-06-27T22:51:33.147Z,98755.89
2018-06-27T22:54:01.662Z,98761.64
2018-06-27T22:56:30.108Z,98759.22
2018-06-27T22:58:58.652Z,98762.11
2018-06-27T23:01:27.266Z,98759.86
2018-06-27T23:03:55.859Z,98762.66
2018-06-27T23:06:24.635Z,98763.81
2018-06-27T23:08:53.219Z,98764.41
2018-06-27T23:11:22.099Z,98762.19
2018-06-27T23:13:50.639Z,98758.61
2018-06-27T23:16:19.203Z,98755.31
2018-06-27T23:18:47.695Z,98760.16
2018-06-27T23:21:16.558Z,98757.81
2018-06-27T23:23:45.074Z,98758.87
2018-06-27T23:26:13.547Z,98757.25
2018-06-27T23:28:42.074Z,98748.58
2018-06-27T23:31:10.528Z,98746.39
2018-06-27T23:33:38.974Z,98749.49
2018-06-27T23:36:07.499Z,98745.80
2018-06-27T23:38:36.092Z,98743.47
2018-06-27T23:41:04.696Z,98741.13
2018-06-27T23:43:33.210Z,98743.83
2018-06-27T23:46:01.726Z,98741.19
2018-06-27T23:48:30.188Z,98746.33
2018-06-27T23:50:58.717Z,98744.52
2018-06-27T23:53:27.258Z,98740.62
2018-06-27T23:55:55.751Z,98737.91
2018-06-27T23:58:24.249Z,98720.94
